createdAt,value
2023-10-28T00:00:53.480Z,0.00
2023-10-28T00:01:53.476Z,0.00
2023-10-28T00:02:53.529Z,0.00
2023-10-28T00:03:53.416Z,0.00
2023-10-28T00:04:53.492Z,0.00
2023-10-28T00:05:53.428Z,0.00
2023-10-28T00:06:53.370Z,0.00
2023-10-28T00:07:53.430Z,0.00
2023-10-28T00:08:53.353Z,0.00
2023-10-28T00:09:53.344Z,0.00
2023-10-28T00:10:53.373Z,0.00
2023-10-28T00:11:53.358Z,0.00
2023-10-28T00:12:53.313Z,0.00
2023-10-28T00:13:53.306Z,0.00
2023-10-28T00:14:53.288Z,0.00
2023-10-28T00:15:53.286Z,0.00
2023-10-28T00:16:53.384Z,0.00
2023-10-28T00:17:53.311Z,0.00
2023-10-28T00:18:53.241Z,0.00
2023-10-28T00:19:53.283Z,0.00
2023-10-28T00:20:53.237Z,0.00
2023-10-28T00:21:55.188Z,0.00
2023-10-28T00:22:53.245Z,0.00
2023-10-28T00:23:53.197Z,0.00
2023-10-28T00:24:53.187Z,0.00
2023-10-28T00:25:53.198Z,0.00
2023-10-28T00:26:53.218Z,0.00
2023-10-28T00:27:53.161Z,0.00
2023-10-28T00:28:53.180Z,0.00
2023-10-28T00:29:53.372Z,0.00
2023-10-28T00:30:56.200Z,0.00
2023-10-28T00:31:54.113Z,0.00
2023-10-28T00:32:53.184Z,0.00
2023-10-28T00:33:53.099Z,0.00
2023-10-28T00:34:53.090Z,0.00
2023-10-28T00:35:55.040Z,0.00
2023-10-28T00:36:55.069Z,0.00
2023-10-28T00:37:53.105Z,0.00
2023-10-28T00:38:53.047Z,0.00
2023-10-28T00:39:53.022Z,0.00
2023-10-28T00:40:53.022Z,0.00
2023-10-28T00:41:53.003Z,0.00
2023-10-28T00:42:53.007Z,0.00
2023-10-28T00:43:53.030Z,0.00
2023-10-28T00:44:52.966Z,0.00
2023-10-28T00:45:52.994Z,0.00
2023-10-28T00:46:53.041Z,0.00
2023-10-28T00:47:52.956Z,0.00
2023-10-28T00:48:54.879Z,0.00
2023-10-28T00:49:54.907Z,0.00
2023-10-28T00:50:52.899Z,0.00
2023-10-28T00:51:52.897Z,0.00
2023-10-28T00:52:52.938Z,0.00
2023-10-28T00:53:52.858Z,0.00
2023-10-28T00:54:54.864Z,0.00
2023-10-28T00:55:52.925Z,0.00
2023-10-28T00:56:52.829Z,0.00
2023-10-28T00:57:54.873Z,0.00
2023-10-28T00:58:53.629Z,0.00
2023-10-28T00:59:52.913Z,0.00
2023-10-28T01:00:52.860Z,0.00
2023-10-28T01:01:52.793Z,0.00
2023-10-28T01:02:52.970Z,0.00
2023-10-28T01:03:52.782Z,0.00
2023-10-28T01:04:52.766Z,0.00
2023-10-28T01:05:52.724Z,0.00
2023-10-28T01:06:52.741Z,0.00
2023-10-28T01:07:52.872Z,0.00
2023-10-28T01:08:52.776Z,0.00
2023-10-28T01:09:52.690Z,0.00
2023-10-28T01:10:52.695Z,0.00
2023-10-28T01:11:52.668Z,0.00
2023-10-28T01:12:52.687Z,0.00
2023-10-28T01:13:52.648Z,0.00
2023-10-28T01:14:52.667Z,0.00
2023-10-28T01:15:52.747Z,0.00
2023-10-28T01:16:52.679Z,0.00
2023-10-28T01:17:52.734Z,0.00
2023-10-28T01:18:52.591Z,0.00
2023-10-28T01:19:52.579Z,0.00
2023-10-28T01:20:52.624Z,0.00
2023-10-28T01:21:54.552Z,0.00
2023-10-28T01:22:52.719Z,0.00
2023-10-28T01:23:52.516Z,0.00
2023-10-28T01:24:52.527Z,0.00
2023-10-28T01:25:52.528Z,0.00
2023-10-28T01:26:53.313Z,0.00
2023-10-28T01:27:54.486Z,0.00
2023-10-28T01:28:52.484Z,0.00
2023-10-28T01:29:52.474Z,0.00
2023-10-28T01:30:52.521Z,0.00
2023-10-28T01:31:52.510Z,0.00
2023-10-28T01:32:52.456Z,0.00
2023-10-28T01:33:52.426Z,0.00
2023-10-28T01:34:52.434Z,0.00
2023-10-28T01:35:52.452Z,0.00
2023-10-28T01:36:54.876Z,0.00
2023-10-28T01:37:52.415Z,0.00
2023-10-28T01:38:52.376Z,0.00
2023-10-28T01:39:52.361Z,0.00
2023-10-28T01:40:52.360Z,0.00
2023-10-28T01:41:52.369Z,0.00
2023-10-28T01:42:52.548Z,0.00
2023-10-28T01:43:52.335Z,0.00
2023-10-28T01:44:52.298Z,0.00
2023-10-28T01:45:54.270Z,0.00
2023-10-28T01:46:52.303Z,0.00
2023-10-28T01:47:52.306Z,0.00
2023-10-28T01:48:53.772Z,0.00
2023-10-28T01:49:52.254Z,0.00
2023-10-28T01:50:54.193Z,0.00
2023-10-28T01:51:54.182Z,0.00
2023-10-28T01:52:52.273Z,0.00
2023-10-28T01:53:52.190Z,0.00
2023-10-28T01:54:52.208Z,0.00
2023-10-28T01:55:52.362Z,0.00
2023-10-28T01:56:52.161Z,0.00
2023-10-28T01:57:52.184Z,0.00
2023-10-28T01:58:52.164Z,0.00
2023-10-28T01:59:52.167Z,0.00
2023-10-28T02:00:52.150Z,0.00
2023-10-28T02:01:52.170Z,0.00
2023-10-28T02:02:52.221Z,0.00
2023-10-28T02:03:52.064Z,0.00
2023-10-28T02:04:52.103Z,0.00
2023-10-28T02:05:52.082Z,0.00
2023-10-28T02:06:53.009Z,0.00
2023-10-28T02:07:52.096Z,0.00
2023-10-28T02:08:52.040Z,0.00
2023-10-28T02:09:52.072Z,0.00
2023-10-28T02:10:52.029Z,0.00
2023-10-28T02:11:52.003Z,0.00
2023-10-28T02:12:53.935Z,0.00
2023-10-28T02:13:51.974Z,0.00
2023-10-28T02:14:52.747Z,0.00
2023-10-28T02:15:53.966Z,0.00
2023-10-28T02:16:52.000Z,0.00
2023-10-28T02:17:51.943Z,0.00
2023-10-28T02:18:51.894Z,0.00
2023-10-28T02:19:51.922Z,0.00
2023-10-28T02:20:51.889Z,0.00
2023-10-28T02:22:02.761Z,0.00
2023-10-28T02:22:52.888Z,0.00
2023-10-28T02:23:51.839Z,0.00
2023-10-28T02:24:51.825Z,0.00
2023-10-28T02:25:51.890Z,0.00
2023-10-28T02:26:51.885Z,0.00
2023-10-28T02:27:51.837Z,0.00
2023-10-28T02:28:51.807Z,0.00
2023-10-28T02:29:51.778Z,0.00
2023-10-28T02:30:51.767Z,0.00
2023-10-28T02:31:51.834Z,0.00
2023-10-28T02:32:51.891Z,0.00
2023-10-28T02:33:51.758Z,0.00
2023-10-28T02:34:51.807Z,0.00
2023-10-28T02:35:51.705Z,0.00
2023-10-28T02:36:51.727Z,0.00
2023-10-28T02:37:51.716Z,0.00
2023-10-28T02:38:51.676Z,0.00
2023-10-28T02:39:51.704Z,0.00
2023-10-28T02:40:51.707Z,0.00
2023-10-28T02:41:51.639Z,0.00
2023-10-28T02:42:54.921Z,0.00
2023-10-28T02:43:51.644Z,0.00
2023-10-28T02:44:51.603Z,0.00
2023-10-28T02:45:53.575Z,0.00
2023-10-28T02:46:51.613Z,0.00
2023-10-28T02:47:51.989Z,0.00
2023-10-28T02:48:51.609Z,0.00
2023-10-28T02:49:51.594Z,0.00
2023-10-28T02:50:51.542Z,0.00
2023-10-28T02:51:51.556Z,0.00
2023-10-28T02:52:51.565Z,0.00
2023-10-28T02:53:51.521Z,0.00
2023-10-28T02:54:51.497Z,0.00
2023-10-28T02:55:51.542Z,0.00
2023-10-28T02:56:51.526Z,0.00
2023-10-28T02:57:51.500Z,0.00
2023-10-28T02:58:51.554Z,0.00
2023-10-28T02:59:51.436Z,0.00
2023-10-28T03:00:51.485Z,0.00
2023-10-28T03:01:51.498Z,0.00
2023-10-28T03:02:51.532Z,0.00
2023-10-28T03:03:51.414Z,0.00
2023-10-28T03:04:53.526Z,0.00
2023-10-28T03:05:52.185Z,0.00
2023-10-28T03:06:51.366Z,0.00
2023-10-28T03:07:51.399Z,0.00
2023-10-28T03:08:51.409Z,0.00
2023-10-28T03:09:53.290Z,0.00
2023-10-28T03:10:51.321Z,0.00
2023-10-28T03:11:51.299Z,0.00
2023-10-28T03:12:52.804Z,0.00
2023-10-28T03:13:53.251Z,0.00
2023-10-28T03:14:53.232Z,0.00
2023-10-28T03:15:53.357Z,0.00
2023-10-28T03:16:51.272Z,0.00
2023-10-28T03:17:51.291Z,0.00
2023-10-28T03:18:51.232Z,0.00
2023-10-28T03:19:51.230Z,0.00
2023-10-28T03:20:51.216Z,0.00
2023-10-28T03:21:51.187Z,0.00
2023-10-28T03:22:51.198Z,0.00
2023-10-28T03:23:52.025Z,0.00
2023-10-28T03:24:53.118Z,0.00
2023-10-28T03:25:51.196Z,0.00
2023-10-28T03:26:51.162Z,0.00
2023-10-28T03:27:51.169Z,0.00
2023-10-28T03:28:51.140Z,0.00
2023-10-28T03:29:51.940Z,0.00
2023-10-28T03:30:51.099Z,0.00
2023-10-28T03:31:51.205Z,0.00
2023-10-28T03:32:53.063Z,0.00
2023-10-28T03:33:52.616Z,0.00
2023-10-28T03:34:51.901Z,0.00
2023-10-28T03:35:51.050Z,0.00
2023-10-28T03:36:51.023Z,0.00
2023-10-28T03:37:51.040Z,0.00
2023-10-28T03:38:51.025Z,0.00
2023-10-28T03:39:51.034Z,0.00
2023-10-28T03:40:51.292Z,0.00
2023-10-28T03:41:51.017Z,0.00
2023-10-28T03:42:50.952Z,0.00
2023-10-28T03:43:51.060Z,0.00
2023-10-28T03:44:50.941Z,0.00
2023-10-28T03:45:51.895Z,0.00
2023-10-28T03:46:50.963Z,0.00
2023-10-28T03:47:50.955Z,0.00
2023-10-28T03:48:50.890Z,0.00
2023-10-28T03:49:50.921Z,0.00
2023-10-28T03:50:52.350Z,0.00
2023-10-28T03:51:50.882Z,0.00
2023-10-28T03:52:50.877Z,0.00
2023-10-28T03:53:50.826Z,0.00
2023-10-28T03:54:52.296Z,0.00
2023-10-28T03:55:50.884Z,0.00
2023-10-28T03:56:51.623Z,0.00
2023-10-28T03:57:52.247Z,0.00
2023-10-28T03:58:50.793Z,0.00
2023-10-28T03:59:50.760Z,0.00
2023-10-28T04:00:52.339Z,0.00
2023-10-28T04:01:50.790Z,0.00
2023-10-28T04:02:50.758Z,0.00
2023-10-28T04:03:50.775Z,0.00
2023-10-28T04:04:50.761Z,0.00
2023-10-28T04:05:50.930Z,0.00
2023-10-28T04:06:50.725Z,0.00
2023-10-28T04:07:50.770Z,0.00
2023-10-28T04:08:52.174Z,0.00
2023-10-28T04:09:51.476Z,0.00
2023-10-28T04:10:50.656Z,0.00
2023-10-28T04:11:50.654Z,0.00
2023-10-28T04:12:50.725Z,0.00
2023-10-28T04:13:51.497Z,0.00
2023-10-28T04:14:52.088Z,0.00
2023-10-28T04:15:50.618Z,0.00
2023-10-28T04:16:50.650Z,0.00
2023-10-28T04:17:50.575Z,0.00
2023-10-28T04:18:50.559Z,0.00
2023-10-28T04:19:50.734Z,0.00
2023-10-28T04:20:50.576Z,0.00
2023-10-28T04:21:50.528Z,0.00
2023-10-28T04:22:51.987Z,0.00
2023-10-28T04:23:51.954Z,0.00
2023-10-28T04:24:50.498Z,0.00
2023-10-28T04:25:50.532Z,0.00
2023-10-28T04:26:50.507Z,0.00
2023-10-28T04:27:51.948Z,0.00
2023-10-28T04:28:50.459Z,0.00
2023-10-28T04:29:50.437Z,0.00
2023-10-28T04:30:51.925Z,0.00
2023-10-28T04:31:50.498Z,0.00
2023-10-28T04:32:51.270Z,0.00
2023-10-28T04:33:50.410Z,0.00
2023-10-28T04:34:56.337Z,0.00
2023-10-28T04:35:51.393Z,0.00
2023-10-28T04:36:50.455Z,0.00
2023-10-28T04:37:51.810Z,0.00
2023-10-28T04:38:50.402Z,0.00
2023-10-28T04:39:50.332Z,0.00
2023-10-28T04:40:50.331Z,0.00
2023-10-28T04:41:50.303Z,0.00
2023-10-28T04:42:51.765Z,0.00
2023-10-28T04:43:50.304Z,0.00
2023-10-28T04:44:50.296Z,0.00
2023-10-28T04:45:50.282Z,0.00
2023-10-28T04:46:51.714Z,0.00
2023-10-28T04:47:51.233Z,0.00
2023-10-28T04:48:50.265Z,0.00
2023-10-28T04:49:50.256Z,0.00
2023-10-28T04:50:50.316Z,0.00
2023-10-28T04:51:51.647Z,0.00
2023-10-28T04:52:51.651Z,0.00
2023-10-28T04:53:51.620Z,0.00
2023-10-28T04:54:50.984Z,0.00
2023-10-28T04:55:50.151Z,0.00
2023-10-28T04:56:50.140Z,0.00
2023-10-28T04:57:51.091Z,0.00
2023-10-28T04:58:50.130Z,0.00
2023-10-28T04:59:50.132Z,0.00
2023-10-28T05:00:51.562Z,0.00
2023-10-28T05:01:50.096Z,0.00
2023-10-28T05:02:50.099Z,0.00
2023-10-28T05:03:50.094Z,0.00
2023-10-28T05:04:50.571Z,0.00
2023-10-28T05:05:50.830Z,0.00
2023-10-28T05:06:50.032Z,0.00
2023-10-28T05:07:50.037Z,0.00
2023-10-28T05:08:50.015Z,0.00
2023-10-28T05:09:49.999Z,0.00
2023-10-28T05:10:50.004Z,0.00
2023-10-28T05:11:49.995Z,0.00
2023-10-28T05:12:49.944Z,0.00
2023-10-28T05:13:49.987Z,0.00
2023-10-28T05:14:49.953Z,0.00
2023-10-28T05:15:49.922Z,0.00
2023-10-28T05:16:49.924Z,0.00
2023-10-28T05:17:49.908Z,0.00
2023-10-28T05:18:50.033Z,0.00
2023-10-28T05:19:50.026Z,0.00
2023-10-28T05:20:49.845Z,0.00
2023-10-28T05:21:51.324Z,0.00
2023-10-28T05:22:49.855Z,0.00
2023-10-28T05:23:50.036Z,0.00
2023-10-28T05:24:49.832Z,0.00
2023-10-28T05:25:49.828Z,0.00
2023-10-28T05:26:51.831Z,0.00
2023-10-28T05:27:49.819Z,0.00
2023-10-28T05:28:49.832Z,0.00
2023-10-28T05:29:49.751Z,0.00
2023-10-28T05:30:49.747Z,0.00
2023-10-28T05:31:49.750Z,0.00
2023-10-28T05:32:49.851Z,0.00
2023-10-28T05:33:49.735Z,0.00
2023-10-28T05:34:49.723Z,0.00
2023-10-28T05:35:49.681Z,0.00
2023-10-28T05:36:49.670Z,0.00
2023-10-28T05:37:49.708Z,0.00
2023-10-28T05:38:49.660Z,0.00
2023-10-28T05:39:49.643Z,0.00
2023-10-28T05:40:49.713Z,0.00
2023-10-28T05:41:49.664Z,0.00
2023-10-28T05:42:49.626Z,0.00
2023-10-28T05:43:49.623Z,0.00
2023-10-28T05:44:50.562Z,0.00
2023-10-28T05:45:52.180Z,0.00
2023-10-28T05:46:49.678Z,0.00
2023-10-28T05:47:49.607Z,0.00
2023-10-28T05:48:50.349Z,0.00
2023-10-28T05:49:49.741Z,0.00
2023-10-28T05:50:49.529Z,0.00
2023-10-28T05:51:51.078Z,0.00
2023-10-28T05:52:49.520Z,0.00
2023-10-28T05:53:49.516Z,0.00
2023-10-28T05:54:49.488Z,0.00
2023-10-28T05:55:49.554Z,0.00
2023-10-28T05:56:50.251Z,0.00
2023-10-28T05:57:50.971Z,4.00
2023-10-28T05:58:49.475Z,4.00
2023-10-28T05:59:50.263Z,4.00
2023-10-28T06:00:49.467Z,0.00
2023-10-28T06:01:49.446Z,4.00
2023-10-28T06:02:49.396Z,4.00
2023-10-28T06:03:49.422Z,8.00
2023-10-28T06:04:49.383Z,4.00
2023-10-28T06:05:49.337Z,4.00
2023-10-28T06:06:49.501Z,8.00
2023-10-28T06:07:49.376Z,8.00
2023-10-28T06:08:50.218Z,8.00
2023-10-28T06:11:37.264Z,12.00
2023-10-28T06:12:34.881Z,20.00
2023-10-28T06:13:35.755Z,20.00
2023-10-28T06:14:34.699Z,24.00
2023-10-28T06:15:34.685Z,24.00
2023-10-28T06:16:34.672Z,24.00
2023-10-28T06:17:34.745Z,32.00
2023-10-28T06:18:34.676Z,36.00
2023-10-28T06:19:34.631Z,32.00
2023-10-28T06:20:34.637Z,36.00
2023-10-28T06:21:34.663Z,36.00
2023-10-28T06:22:34.583Z,48.00
2023-10-28T06:23:34.582Z,52.00
2023-10-28T06:24:37.145Z,60.00
2023-10-28T06:25:34.586Z,68.00
2023-10-28T06:26:34.562Z,68.00
2023-10-28T06:27:34.531Z,64.00
2023-10-28T06:28:34.534Z,68.00
2023-10-28T06:29:34.553Z,56.00
2023-10-28T06:30:34.811Z,56.00
2023-10-28T06:31:36.984Z,60.00
2023-10-28T06:32:34.523Z,56.00
2023-10-28T06:33:34.479Z,68.00
2023-10-28T06:34:35.332Z,84.00
2023-10-28T06:35:35.394Z,100.00
2023-10-28T06:36:34.483Z,96.00
2023-10-28T06:37:35.382Z,112.00
2023-10-28T06:38:34.462Z,124.00
2023-10-28T06:39:34.747Z,128.00
2023-10-28T06:40:34.387Z,120.00
2023-10-28T06:41:34.425Z,132.00
2023-10-28T06:42:34.348Z,144.00
2023-10-28T06:43:34.404Z,160.00
2023-10-28T06:44:34.447Z,148.00
2023-10-28T06:45:34.340Z,132.00
2023-10-28T06:46:34.391Z,136.00
2023-10-28T06:47:34.356Z,140.00
2023-10-28T06:48:34.418Z,156.00
2023-10-28T06:49:34.610Z,172.00
2023-10-28T06:50:34.981Z,196.00
2023-10-28T06:51:36.340Z,220.00
2023-10-28T06:52:34.270Z,208.00
2023-10-28T06:53:34.280Z,220.00
2023-10-28T06:54:34.244Z,260.00
2023-10-28T06:55:34.293Z,280.00
2023-10-28T06:56:34.204Z,304.00
2023-10-28T06:57:36.169Z,316.00
2023-10-28T06:58:35.132Z,288.00
2023-10-28T06:59:34.266Z,272.00
2023-10-28T07:00:34.156Z,280.00
2023-10-28T07:01:34.414Z,368.00
2023-10-28T07:02:34.250Z,416.00
2023-10-28T07:03:35.233Z,460.00
2023-10-28T07:04:34.119Z,472.00
2023-10-28T07:05:34.104Z,492.00
2023-10-28T07:06:36.075Z,532.00
2023-10-28T07:07:34.133Z,568.00
2023-10-28T07:08:34.126Z,596.00
2023-10-28T07:09:34.915Z,592.00
2023-10-28T07:10:34.086Z,568.00
2023-10-28T07:11:34.082Z,552.00
2023-10-28T07:12:34.030Z,584.00
2023-10-28T07:13:34.031Z,608.00
2023-10-28T07:14:33.994Z,620.00
2023-10-28T07:15:34.063Z,624.00
2023-10-28T07:16:34.052Z,624.00
2023-10-28T07:17:34.078Z,628.00
2023-10-28T07:18:35.992Z,628.00
2023-10-28T07:19:33.940Z,664.00
2023-10-28T07:20:33.982Z,728.00
2023-10-28T07:21:34.063Z,776.00
2023-10-28T07:22:33.933Z,752.00
2023-10-28T07:23:33.926Z,724.00
2023-10-28T07:24:33.900Z,760.00
2023-10-28T07:25:33.882Z,800.00
2023-10-28T07:26:34.663Z,840.00
2023-10-28T07:27:35.847Z,860.00
2023-10-28T07:28:33.835Z,860.00
2023-10-28T07:29:33.873Z,796.00
2023-10-28T07:30:33.811Z,716.00
2023-10-28T07:31:33.806Z,692.00
2023-10-28T07:32:33.894Z,672.00
2023-10-28T07:33:33.818Z,628.00
2023-10-28T07:34:33.773Z,496.00
2023-10-28T07:35:33.772Z,492.00
2023-10-28T07:36:33.779Z,704.00
2023-10-28T07:37:34.705Z,832.00
2023-10-28T07:38:33.846Z,896.00
2023-10-28T07:39:33.734Z,968.00
2023-10-28T07:40:33.714Z,1040.00
2023-10-28T07:41:36.157Z,1084.00
2023-10-28T07:42:35.653Z,1216.00
2023-10-28T07:43:33.688Z,1300.00
2023-10-28T07:44:33.707Z,1332.00
2023-10-28T07:45:35.291Z,1348.00
2023-10-28T07:46:33.707Z,1232.00
2023-10-28T07:47:33.691Z,1000.00
2023-10-28T07:48:33.750Z,860.00
2023-10-28T07:49:33.636Z,956.00
2023-10-28T07:50:33.613Z,928.00
2023-10-28T07:51:33.614Z,984.00
2023-10-28T07:52:33.670Z,1092.00
2023-10-28T07:53:35.518Z,1328.00
2023-10-28T07:54:33.577Z,1540.00
2023-10-28T07:55:33.581Z,1408.00
2023-10-28T07:56:34.217Z,1216.00
2023-10-28T07:57:33.597Z,1188.00
2023-10-28T07:58:33.507Z,1096.00
2023-10-28T07:59:33.528Z,1032.00
2023-10-28T08:00:35.514Z,1124.00
2023-10-28T08:01:33.484Z,1160.00
2023-10-28T08:02:33.514Z,1204.00
2023-10-28T08:03:35.037Z,1240.00
2023-10-28T08:04:33.455Z,1268.00
2023-10-28T08:05:35.429Z,1248.00
2023-10-28T08:06:35.868Z,1036.00
2023-10-28T08:07:33.591Z,1016.00
2023-10-28T08:08:35.362Z,1228.00
2023-10-28T08:09:35.354Z,1332.00
2023-10-28T08:10:33.368Z,1656.00
2023-10-28T08:11:35.339Z,1732.00
2023-10-28T08:12:33.347Z,1096.00
2023-10-28T08:13:33.513Z,1100.00
2023-10-28T08:14:34.866Z,788.00
2023-10-28T08:15:34.193Z,656.00
2023-10-28T08:16:34.861Z,672.00
2023-10-28T08:17:33.384Z,672.00
2023-10-28T08:18:33.907Z,848.00
2023-10-28T08:19:34.744Z,856.00
2023-10-28T08:20:33.264Z,900.00
2023-10-28T08:21:33.270Z,936.00
2023-10-28T08:22:34.440Z,880.00
2023-10-28T08:23:33.416Z,1104.00
2023-10-28T08:24:35.702Z,1000.00
2023-10-28T08:25:34.690Z,1036.00
2023-10-28T08:26:33.204Z,1224.00
2023-10-28T08:27:33.264Z,1332.00
2023-10-28T08:28:33.196Z,1424.00
2023-10-28T08:29:33.203Z,1400.00
2023-10-28T08:30:34.623Z,1308.00
2023-10-28T08:31:33.190Z,1144.00
2023-10-28T08:32:33.510Z,1048.00
2023-10-28T08:33:33.164Z,1044.00
2023-10-28T08:34:33.140Z,1028.00
2023-10-28T08:35:33.155Z,684.00
2023-10-28T08:36:34.596Z,648.00
2023-10-28T08:37:33.449Z,836.00
2023-10-28T08:38:33.219Z,896.00
2023-10-28T08:39:33.089Z,880.00
2023-10-28T08:40:33.073Z,1112.00
2023-10-28T08:41:33.046Z,1304.00
2023-10-28T08:42:33.167Z,1552.00
2023-10-28T08:43:33.367Z,1300.00
2023-10-28T08:44:33.020Z,1316.00
2023-10-28T08:45:33.788Z,1316.00
2023-10-28T08:46:33.032Z,1424.00
2023-10-28T08:47:33.151Z,1560.00
2023-10-28T08:48:37.464Z,1516.00
2023-10-28T08:49:33.061Z,1492.00
2023-10-28T08:50:33.240Z,1612.00
2023-10-28T08:51:32.924Z,2376.00
2023-10-28T08:52:32.978Z,2212.00
2023-10-28T08:53:32.954Z,2308.00
2023-10-28T08:54:34.366Z,2352.00
2023-10-28T08:55:32.887Z,2604.00
2023-10-28T08:56:32.916Z,2444.00
2023-10-28T08:57:33.473Z,2120.00
2023-10-28T08:58:32.866Z,1940.00
2023-10-28T08:59:32.839Z,1900.00
2023-10-28T09:00:34.307Z,1616.00
2023-10-28T09:01:32.937Z,1320.00
2023-10-28T09:02:32.947Z,1260.00
2023-10-28T09:03:32.831Z,1240.00
2023-10-28T09:04:32.797Z,1300.00
2023-10-28T09:05:32.944Z,1280.00
2023-10-28T09:06:35.885Z,1316.00
2023-10-28T09:07:34.213Z,1368.00
2023-10-28T09:08:33.544Z,1376.00
2023-10-28T09:09:34.213Z,1348.00
2023-10-28T09:10:34.225Z,1360.00
2023-10-28T09:11:32.705Z,1296.00
2023-10-28T09:12:32.735Z,1184.00
2023-10-28T09:13:32.892Z,1204.00
2023-10-28T09:14:32.681Z,1200.00
2023-10-28T09:15:32.767Z,1144.00
2023-10-28T09:16:32.673Z,1016.00
2023-10-28T09:17:34.132Z,900.00
2023-10-28T09:18:34.127Z,756.00
2023-10-28T09:19:34.081Z,808.00
2023-10-28T09:20:34.077Z,820.00
2023-10-28T09:21:32.606Z,756.00
2023-10-28T09:22:33.391Z,820.00
2023-10-28T09:23:34.056Z,928.00
2023-10-28T09:24:32.726Z,1036.00
2023-10-28T09:25:34.035Z,1036.00
2023-10-28T09:26:33.389Z,1052.00
2023-10-28T09:27:34.027Z,1168.00
2023-10-28T09:28:32.580Z,1192.00
2023-10-28T09:29:33.966Z,1244.00
2023-10-28T09:30:34.067Z,880.00
2023-10-28T09:31:33.968Z,1080.00
2023-10-28T09:32:33.366Z,1144.00
2023-10-28T09:33:33.418Z,1032.00
2023-10-28T09:34:32.511Z,952.00
2023-10-28T09:35:32.442Z,1060.00
2023-10-28T09:36:32.450Z,1064.00
2023-10-28T09:37:32.552Z,972.00
2023-10-28T09:38:32.455Z,676.00
2023-10-28T09:39:32.460Z,872.00
2023-10-28T09:40:33.891Z,1100.00
2023-10-28T09:41:32.395Z,1172.00
2023-10-28T09:42:32.395Z,1376.00
2023-10-28T09:43:32.437Z,1276.00
2023-10-28T09:44:32.359Z,1532.00
2023-10-28T09:45:33.361Z,1184.00
2023-10-28T09:46:32.358Z,1356.00
2023-10-28T09:47:32.370Z,1508.00
2023-10-28T09:48:32.383Z,1916.00
2023-10-28T09:49:32.349Z,2016.00
2023-10-28T09:50:32.293Z,2280.00
2023-10-28T09:51:32.475Z,2624.00
2023-10-28T09:52:32.337Z,2748.00
2023-10-28T09:53:32.305Z,2600.00
2023-10-28T09:54:32.245Z,2444.00
2023-10-28T09:55:32.250Z,2640.00
2023-10-28T09:56:34.921Z,2644.00
2023-10-28T09:57:33.471Z,1772.00
2023-10-28T09:58:32.332Z,1800.00
2023-10-28T09:59:32.213Z,2044.00
2023-10-28T10:00:33.036Z,2064.00
2023-10-28T10:01:32.344Z,2308.00
2023-10-28T10:02:32.240Z,2704.00
2023-10-28T10:03:32.214Z,2348.00
2023-10-28T10:04:32.126Z,2024.00
2023-10-28T10:05:32.187Z,2192.00
2023-10-28T10:06:32.115Z,2596.00
2023-10-28T10:07:32.907Z,2896.00
2023-10-28T10:08:32.131Z,2316.00
2023-10-28T10:09:32.085Z,2312.00
2023-10-28T10:10:32.582Z,2644.00
2023-10-28T10:11:32.040Z,2736.00
2023-10-28T10:12:32.049Z,2564.00
2023-10-28T10:13:32.053Z,2428.00
2023-10-28T10:14:32.037Z,2056.00
2023-10-28T10:15:32.084Z,1780.00
2023-10-28T10:16:32.010Z,1744.00
2023-10-28T10:17:32.112Z,1756.00
2023-10-28T10:18:32.032Z,1784.00
2023-10-28T10:19:32.774Z,1812.00
2023-10-28T10:20:32.035Z,1848.00
2023-10-28T10:21:33.549Z,1876.00
2023-10-28T10:22:32.901Z,1908.00
2023-10-28T10:23:31.941Z,1908.00
2023-10-28T10:24:31.926Z,1972.00
2023-10-28T10:25:31.900Z,2160.00
2023-10-28T10:26:31.941Z,2256.00
2023-10-28T10:27:32.827Z,2288.00
2023-10-28T10:28:31.921Z,2284.00
2023-10-28T10:29:31.872Z,2284.00
2023-10-28T10:30:31.876Z,2520.00
2023-10-28T10:31:31.845Z,3076.00
2023-10-28T10:32:31.889Z,2916.00
2023-10-28T10:33:32.764Z,3156.00
2023-10-28T10:34:31.825Z,3144.00
2023-10-28T10:35:33.512Z,3156.00
2023-10-28T10:36:31.798Z,2900.00
2023-10-28T10:37:31.764Z,2812.00
2023-10-28T10:38:31.806Z,2788.00
2023-10-28T10:39:32.596Z,2640.00
2023-10-28T10:40:31.713Z,2588.00
2023-10-28T10:41:31.730Z,2588.00
2023-10-28T10:42:31.848Z,2796.00
2023-10-28T10:43:31.674Z,2872.00
2023-10-28T10:44:32.505Z,2864.00
2023-10-28T10:45:32.548Z,2632.00
2023-10-28T10:46:31.949Z,2912.00
2023-10-28T10:47:31.773Z,3100.00
2023-10-28T10:48:32.451Z,3000.00
2023-10-28T10:49:33.558Z,3024.00
2023-10-28T10:50:32.676Z,2532.00
2023-10-28T10:51:31.603Z,2560.00
2023-10-28T10:52:31.603Z,2880.00
2023-10-28T10:53:33.511Z,2944.00
2023-10-28T10:54:31.633Z,3116.00
2023-10-28T10:55:31.730Z,3180.00
2023-10-28T10:56:31.868Z,3220.00
2023-10-28T10:57:31.544Z,3284.00
2023-10-28T10:58:32.577Z,3420.00
2023-10-28T10:59:33.486Z,3384.00
2023-10-28T11:00:31.529Z,3504.00
2023-10-28T11:01:31.549Z,3632.00
2023-10-28T11:02:31.600Z,3648.00
2023-10-28T11:03:31.505Z,3680.00
2023-10-28T11:04:32.439Z,3472.00
2023-10-28T11:05:31.485Z,3392.00
2023-10-28T11:06:31.465Z,3452.00
2023-10-28T11:07:31.450Z,3412.00
2023-10-28T11:08:31.418Z,3508.00
2023-10-28T11:09:31.475Z,3256.00
2023-10-28T11:10:31.522Z,3280.00
2023-10-28T11:11:33.382Z,3168.00
2023-10-28T11:12:31.376Z,2544.00
2023-10-28T11:13:33.317Z,2448.00
2023-10-28T11:14:33.348Z,2288.00
2023-10-28T11:15:32.991Z,3020.00
2023-10-28T11:16:31.347Z,3164.00
2023-10-28T11:17:31.367Z,3928.00
2023-10-28T11:18:32.104Z,4336.00
2023-10-28T11:19:32.102Z,4196.00
2023-10-28T11:20:31.473Z,3032.00
2023-10-28T11:21:31.240Z,2440.00
2023-10-28T11:22:31.567Z,2104.00
2023-10-28T11:23:31.268Z,2048.00
2023-10-28T11:24:31.286Z,2348.00
2023-10-28T11:25:32.025Z,3080.00
2023-10-28T11:26:31.249Z,3444.00
2023-10-28T11:27:32.238Z,3848.00
2023-10-28T11:28:32.029Z,4136.00
2023-10-28T11:29:33.158Z,3692.00
2023-10-28T11:30:31.613Z,3076.00
2023-10-28T11:31:31.224Z,3240.00
2023-10-28T11:32:31.207Z,2652.00
2023-10-28T11:33:31.353Z,3032.00
2023-10-28T11:34:31.950Z,4780.00
2023-10-28T11:35:33.098Z,6144.00
2023-10-28T11:36:33.065Z,5712.00
2023-10-28T11:37:31.084Z,4888.00
2023-10-28T11:38:31.167Z,3948.00
2023-10-28T11:39:31.118Z,3832.00
2023-10-28T11:40:31.074Z,3824.00
2023-10-28T11:41:31.107Z,4400.00
2023-10-28T11:42:31.034Z,3424.00
2023-10-28T11:43:31.009Z,3396.00
2023-10-28T11:44:31.109Z,3592.00
2023-10-28T11:45:32.982Z,3688.00
2023-10-28T11:46:31.000Z,3476.00
2023-10-28T11:47:31.029Z,2484.00
2023-10-28T11:48:31.789Z,2712.00
2023-10-28T11:49:30.997Z,3608.00
2023-10-28T11:50:32.529Z,3148.00
2023-10-28T11:51:30.937Z,3112.00
2023-10-28T11:52:30.910Z,3360.00
2023-10-28T11:53:32.633Z,3888.00
2023-10-28T11:54:31.127Z,4596.00
2023-10-28T11:55:31.725Z,4568.00
2023-10-28T11:56:31.390Z,4272.00
2023-10-28T11:57:30.855Z,3112.00
2023-10-28T11:58:30.873Z,2564.00
2023-10-28T11:59:32.588Z,3460.00
2023-10-28T12:00:30.891Z,5012.00
2023-10-28T12:01:30.930Z,3780.00
2023-10-28T12:02:30.844Z,3160.00
2023-10-28T12:03:31.046Z,3272.00
2023-10-28T12:04:31.041Z,14016.00
2023-10-28T12:05:31.051Z,6240.00
2023-10-28T12:06:31.250Z,4100.00
2023-10-28T12:07:31.050Z,5100.00
2023-10-28T12:08:31.037Z,4136.00
2023-10-28T12:09:32.047Z,3444.00
2023-10-28T12:10:31.538Z,2508.00
2023-10-28T12:11:31.014Z,2604.00
2023-10-28T12:12:30.959Z,2872.00
2023-10-28T12:13:31.003Z,2408.00
2023-10-28T12:14:30.839Z,3940.00
2023-10-28T12:15:30.752Z,5788.00
2023-10-28T12:16:30.712Z,15780.00
2023-10-28T12:17:30.872Z,24800.00
2023-10-28T12:18:32.669Z,3952.00
2023-10-28T12:19:32.613Z,5248.00
2023-10-28T12:20:30.739Z,3268.00
2023-10-28T12:21:30.588Z,2800.00
2023-10-28T12:22:30.607Z,1508.00
2023-10-28T12:23:30.605Z,1372.00
2023-10-28T12:24:30.580Z,1160.00
2023-10-28T12:25:30.560Z,1172.00
2023-10-28T12:26:30.675Z,1296.00
2023-10-28T12:27:31.430Z,1508.00
2023-10-28T12:28:32.514Z,2668.00
2023-10-28T12:29:30.696Z,3348.00
2023-10-28T12:30:30.556Z,4464.00
2023-10-28T12:31:30.657Z,2508.00
2023-10-28T12:32:30.648Z,1600.00
2023-10-28T12:33:30.589Z,1556.00
2023-10-28T12:34:30.557Z,1244.00
2023-10-28T12:35:32.528Z,1108.00
2023-10-28T12:36:31.988Z,1080.00
2023-10-28T12:37:30.463Z,920.00
2023-10-28T12:38:30.480Z,1068.00
2023-10-28T12:39:32.541Z,1260.00
2023-10-28T12:40:30.432Z,2044.00
2023-10-28T12:41:32.464Z,2960.00
2023-10-28T12:42:31.228Z,2840.00
2023-10-28T12:43:30.482Z,3588.00
2023-10-28T12:44:30.590Z,2860.00
2023-10-28T12:45:32.368Z,2292.00